createdAt,value
2018-06-16T00:04:01.581Z,21.89
2018-06-16T00:09:07.765Z,21.91
2018-06-16T00:14:10.775Z,21.94
2018-06-16T00:19:13.829Z,21.92
2018-06-16T00:24:16.831Z,21.93
2018-06-16T00:29:19.837Z,21.93
2018-06-16T00:34:22.856Z,21.93
2018-06-16T00:39:25.841Z,21.90
2018-06-16T00:44:28.854Z,21.90
2018-06-16T00:49:32.098Z,21.76
2018-06-16T00:54:35.070Z,21.75
2018-06-16T00:59:38.081Z,21.67
2018-06-16T01:04:42.194Z,21.52
2018-06-16T01:09:45.657Z,21.47
2018-06-16T01:14:49.346Z,21.39
2018-06-16T01:19:53.616Z,21.29
2018-06-16T01:24:57.575Z,21.17
2018-06-16T01:30:00.726Z,21.03
2018-06-16T01:35:03.781Z,20.96
2018-06-16T01:40:06.854Z,20.98
2018-06-16T01:45:09.857Z,21.07
2018-06-16T01:50:12.897Z,21.11
2018-06-16T01:55:15.958Z,21.10
2018-06-16T02:00:18.961Z,20.97
2018-06-16T02:05:21.978Z,20.85
2018-06-16T02:10:25.003Z,20.82
2018-06-16T02:15:28.047Z,20.77
2018-06-16T02:20:31.043Z,20.66
2018-06-16T02:25:34.033Z,20.58
2018-06-16T02:30:37.298Z,20.54
2018-06-16T02:35:40.358Z,20.55
2018-06-16T02:40:43.382Z,20.61
2018-06-16T02:45:46.394Z,20.67
2018-06-16T02:50:49.438Z,20.71
2018-06-16T02:55:52.458Z,20.68
2018-06-16T03:00:55.471Z,20.63
2018-06-16T03:05:58.477Z,19.76
2018-06-16T03:11:01.481Z,20.54
2018-06-16T03:16:04.574Z,20.62
2018-06-16T03:21:07.597Z,20.77
2018-06-16T03:26:10.650Z,20.97
2018-06-16T03:31:13.698Z,21.05
2018-06-16T03:36:16.718Z,21.06
2018-06-16T03:41:19.759Z,21.17
2018-06-16T03:46:22.814Z,21.27
2018-06-16T03:51:25.842Z,21.32
2018-06-16T03:56:28.870Z,21.29
2018-06-16T04:01:33.358Z,21.24
2018-06-16T04:06:36.439Z,21.30
2018-06-16T04:11:39.729Z,21.47
2018-06-16T04:16:42.943Z,21.59
2018-06-16T04:21:46.008Z,21.71
2018-06-16T04:26:49.001Z,21.72
2018-06-16T04:31:52.062Z,21.78
2018-06-16T04:36:55.050Z,21.86
2018-06-16T04:41:58.113Z,21.97
2018-06-16T04:47:01.238Z,22.11
2018-06-16T04:52:04.274Z,22.31
2018-06-16T04:57:07.354Z,22.48
2018-06-16T05:02:10.325Z,22.78
2018-06-16T05:07:13.337Z,23.06
2018-06-16T05:12:16.425Z,23.27
2018-06-16T05:17:19.596Z,23.38
2018-06-16T05:22:22.620Z,23.44
2018-06-16T05:27:25.690Z,23.52
2018-06-16T05:32:28.716Z,23.67
2018-06-16T05:37:31.702Z,24.00
2018-06-16T05:42:34.705Z,24.35
2018-06-16T05:47:37.746Z,24.58
2018-06-16T05:52:40.790Z,24.70
2018-06-16T05:57:43.836Z,24.83
2018-06-16T06:02:47.026Z,25.03
2018-06-16T06:07:50.161Z,25.61
2018-06-16T06:12:53.169Z,26.17
2018-06-16T06:17:57.931Z,26.25
2018-06-16T06:23:01.094Z,26.18
2018-06-16T06:28:04.182Z,26.27
2018-06-16T06:33:07.242Z,26.50
2018-06-16T06:38:12.089Z,26.58
2018-06-16T06:43:15.204Z,26.85
2018-06-16T06:48:18.277Z,26.95
2018-06-16T06:53:21.318Z,26.91
2018-06-16T06:58:26.392Z,26.90
2018-06-16T07:03:29.458Z,26.86
2018-06-16T07:08:32.433Z,26.78
2018-06-16T07:13:35.503Z,26.96
2018-06-16T07:18:38.485Z,27.12
2018-06-16T07:23:41.490Z,27.32
2018-06-16T07:28:44.533Z,27.49
2018-06-16T07:33:47.537Z,27.81
2018-06-16T07:38:50.634Z,28.12
2018-06-16T07:43:53.577Z,28.32
2018-06-16T07:48:56.602Z,28.38
2018-06-16T07:53:59.565Z,28.43
2018-06-16T07:59:02.658Z,28.65
2018-06-16T08:04:05.695Z,28.88
2018-06-16T08:09:09.780Z,28.94
2018-06-16T08:14:12.803Z,28.80
2018-06-16T08:19:15.830Z,29.20
2018-06-16T08:24:18.873Z,29.62
2018-06-16T08:29:21.865Z,29.81
2018-06-16T08:34:24.907Z,29.68
2018-06-16T08:39:27.958Z,29.45
2018-06-16T08:44:30.939Z,29.54
2018-06-16T08:49:33.917Z,29.79
2018-06-16T08:54:36.918Z,30.17
2018-06-16T08:59:39.968Z,30.32
2018-06-16T09:04:43.002Z,30.61
2018-06-16T09:09:46.049Z,30.87
2018-06-16T09:14:49.067Z,31.26
2018-06-16T09:19:52.147Z,31.32
2018-06-16T09:24:55.121Z,31.00
2018-06-16T09:29:58.193Z,31.10
2018-06-16T09:35:01.223Z,31.10
2018-06-16T09:40:04.347Z,30.94
2018-06-16T09:45:07.319Z,30.99
2018-06-16T09:50:10.303Z,31.02
2018-06-16T09:55:13.371Z,31.27
2018-06-16T10:00:22.033Z,31.76
2018-06-16T10:05:25.027Z,31.96
2018-06-16T10:10:28.030Z,32.11
2018-06-16T10:15:31.094Z,32.49
2018-06-16T10:20:34.185Z,32.68
2018-06-16T10:25:37.319Z,32.57
2018-06-16T10:30:40.424Z,32.50
2018-06-16T10:35:43.452Z,31.98
2018-06-16T10:40:46.449Z,32.31
2018-06-16T10:45:49.561Z,32.51
2018-06-16T10:50:52.570Z,32.69
2018-06-16T10:55:55.625Z,32.60
2018-06-16T11:00:58.825Z,32.37
2018-06-16T11:06:01.978Z,32.54
2018-06-16T11:11:05.114Z,32.97
2018-06-16T11:16:08.187Z,32.87
2018-06-16T11:21:11.229Z,33.25
2018-06-16T11:26:14.293Z,33.45
2018-06-16T11:31:17.336Z,33.68
2018-06-16T11:36:20.474Z,33.89
2018-06-16T11:41:23.478Z,34.05
2018-06-16T11:46:26.510Z,33.66
2018-06-16T11:51:29.793Z,33.57
2018-06-16T11:56:33.488Z,33.30
2018-06-16T12:01:36.629Z,33.26
2018-06-16T12:06:39.940Z,33.31
2018-06-16T12:11:43.289Z,33.41
2018-06-16T12:16:46.405Z,32.86
2018-06-16T12:21:49.435Z,32.50
2018-06-16T12:26:52.426Z,32.25
2018-06-16T12:31:55.474Z,32.49
2018-06-16T12:36:58.593Z,33.01
2018-06-16T12:42:01.606Z,32.52
2018-06-16T12:47:04.710Z,32.70
2018-06-16T12:52:07.750Z,32.63
2018-06-16T12:57:10.837Z,32.20
2018-06-16T13:02:13.853Z,32.28
2018-06-16T13:07:16.885Z,32.28
2018-06-16T13:12:19.902Z,32.23
2018-06-16T13:17:22.922Z,32.11
2018-06-16T13:22:26.042Z,32.08
2018-06-16T13:27:29.065Z,32.06
2018-06-16T13:32:32.097Z,32.13
2018-06-16T13:37:35.101Z,31.95
2018-06-16T13:42:38.125Z,31.98
2018-06-16T13:47:41.108Z,32.00
2018-06-16T13:52:44.105Z,31.94
2018-06-16T13:57:47.095Z,32.17
2018-06-16T14:02:50.075Z,32.20
2018-06-16T14:07:53.152Z,32.34
2018-06-16T14:12:56.237Z,32.49
2018-06-16T14:17:59.225Z,31.91
2018-06-16T14:23:02.312Z,32.05
2018-06-16T14:28:06.854Z,32.17
2018-06-16T14:33:11.391Z,31.98
2018-06-16T14:38:16.886Z,32.45
2018-06-16T14:43:19.973Z,32.44
2018-06-16T14:48:23.079Z,32.24
2018-06-16T14:53:26.114Z,31.87
2018-06-16T14:58:29.130Z,31.74
2018-06-16T15:03:32.150Z,32.03
2018-06-16T15:08:35.954Z,32.85
2018-06-16T15:13:38.944Z,33.10
2018-06-16T15:18:42.337Z,33.24
2018-06-16T15:23:45.330Z,33.66
2018-06-16T15:28:48.317Z,33.27
2018-06-16T15:33:51.277Z,32.78
2018-06-16T15:38:54.281Z,32.19
2018-06-16T15:43:57.261Z,31.71
2018-06-16T15:49:00.332Z,31.85
2018-06-16T15:54:03.367Z,32.29
2018-06-16T15:59:06.336Z,32.11
2018-06-16T16:04:09.305Z,32.44
2018-06-16T16:09:12.281Z,32.97
2018-06-16T16:14:15.338Z,32.74
2018-06-16T16:19:18.345Z,32.86
2018-06-16T16:24:21.353Z,32.21
2018-06-16T16:29:24.360Z,31.93
2018-06-16T16:34:28.899Z,32.27
2018-06-16T16:39:31.994Z,32.54
2018-06-16T16:44:35.041Z,32.55
2018-06-16T16:49:38.035Z,32.66
2018-06-16T16:54:41.016Z,32.83
2018-06-16T16:59:44.006Z,32.67
2018-06-16T17:04:47.005Z,32.48
2018-06-16T17:09:50.011Z,32.44
2018-06-16T17:14:53.078Z,32.04
2018-06-16T17:19:56.072Z,31.74
2018-06-16T17:24:59.443Z,31.63
2018-06-16T17:30:02.469Z,31.32
2018-06-16T17:35:05.921Z,31.05
2018-06-16T17:40:08.902Z,30.59
2018-06-16T17:45:11.918Z,30.22
2018-06-16T17:50:14.995Z,29.92
2018-06-16T17:55:18.085Z,29.72
2018-06-16T18:00:21.191Z,29.59
2018-06-16T18:05:24.563Z,29.63
2018-06-16T18:10:27.674Z,29.77
2018-06-16T18:15:30.783Z,29.80
2018-06-16T18:20:33.917Z,29.83
2018-06-16T18:25:36.988Z,29.98
2018-06-16T18:30:40.113Z,30.05
2018-06-16T18:35:43.215Z,29.77
2018-06-16T18:40:46.295Z,29.44
2018-06-16T18:45:49.365Z,29.16
2018-06-16T18:50:52.424Z,28.92
2018-06-16T18:55:55.486Z,28.87
2018-06-16T19:00:58.476Z,28.82
2018-06-16T19:06:01.574Z,28.71
2018-06-16T19:11:04.610Z,28.55
2018-06-16T19:16:07.757Z,28.22
2018-06-16T19:21:10.711Z,27.76
2018-06-16T19:26:13.709Z,27.59
2018-06-16T19:31:16.823Z,27.38
2018-06-16T19:36:19.878Z,27.44
2018-06-16T19:41:24.257Z,27.35
2018-06-16T19:46:28.538Z,27.16
2018-06-16T19:51:31.699Z,26.99
2018-06-16T19:56:34.734Z,26.95
2018-06-16T20:01:37.706Z,26.83
2018-06-16T20:06:40.798Z,26.73
2018-06-16T20:11:48.319Z,26.73
2018-06-16T20:16:51.349Z,26.69
2018-06-16T20:21:54.371Z,26.66
2018-06-16T20:26:57.369Z,26.65
2018-06-16T20:32:00.349Z,26.68
2018-06-16T20:37:03.410Z,26.60
2018-06-16T20:42:06.450Z,26.33
2018-06-16T20:47:09.461Z,25.09
2018-06-16T20:52:12.493Z,24.20
2018-06-16T20:57:15.516Z,23.94
2018-06-16T21:02:18.526Z,23.80
2018-06-16T21:07:21.541Z,23.76
2018-06-16T21:12:24.606Z,23.67
2018-06-16T21:17:27.730Z,23.40
2018-06-16T21:22:31.850Z,22.91
2018-06-16T21:27:34.955Z,22.74
2018-06-16T21:32:38.095Z,22.57
2018-06-16T21:37:41.168Z,22.76
2018-06-16T21:42:44.187Z,22.79
2018-06-16T21:47:47.233Z,22.67
2018-06-16T21:52:50.308Z,22.49
2018-06-16T21:57:53.408Z,22.28
2018-06-16T22:02:56.496Z,22.00
2018-06-16T22:08:05.174Z,21.77
2018-06-16T22:13:08.189Z,21.88
2018-06-16T22:18:11.363Z,21.89
2018-06-16T22:23:14.422Z,21.67
2018-06-16T22:28:17.462Z,21.43
2018-06-16T22:33:20.480Z,21.32
2018-06-16T22:38:23.631Z,21.18
2018-06-16T22:43:27.115Z,21.00
2018-06-16T22:48:30.386Z,21.00
2018-06-16T22:53:33.385Z,20.88
2018-06-16T22:58:36.429Z,20.88
2018-06-16T23:03:39.743Z,20.88
2018-06-16T23:08:42.764Z,20.92
2018-06-16T23:13:45.882Z,20.92
2018-06-16T23:18:48.963Z,20.91
2018-06-16T23:23:51.983Z,20.91
2018-06-16T23:28:55.123Z,20.86
2018-06-16T23:33:58.400Z,20.78
2018-06-16T23:39:01.404Z,20.83
2018-06-16T23:44:04.497Z,20.85
2018-06-16T23:49:07.910Z,20.83
2018-06-16T23:54:10.926Z,20.70
2018-06-16T23:59:14.201Z,20.73
